sensor_id;sensor_type;location;lat;lon;timestamp;pressure;altitude;pressure_sealevel;temperature;humidity
65666;BME280;52365;47.464;18.976;2023-02-28T00:00:33;100847.94;;;3.49;44.00
65666;BME280;52365;47.464;18.976;2023-02-28T00:01:11;100851.41;;;3.60;43.84
65666;BME280;52365;47.464;18.976;2023-02-28T00:01:47;100857.13;;;3.80;43.21
65666;BME280;52365;47.464;18.976;2023-02-28T00:02:23;100850.63;;;3.56;43.21
65666;BME280;52365;47.464;18.976;2023-02-28T00:02:59;100851.72;;;3.30;43.79
65666;BME280;52365;47.464;18.976;2023-02-28T00:03:35;100854.78;;;3.50;44.06
65666;BME280;52365;47.464;18.976;2023-02-28T00:04:12;100860.75;;;3.11;44.36
65666;BME280;52365;47.464;18.976;2023-02-28T00:04:48;100853.25;;;3.49;44.26
65666;BME280;52365;47.464;18.976;2023-02-28T00:05:28;100856.72;;;3.64;43.77
65666;BME280;52365;47.464;18.976;2023-02-28T00:06:06;100853.25;;;3.49;43.48
65666;BME280;52365;47.464;18.976;2023-02-28T00:06:42;100856.34;;;3.72;43.42
65666;BME280;52365;47.464;18.976;2023-02-28T00:07:18;100860.91;;;3.75;43.34
65666;BME280;52365;47.464;18.976;2023-02-28T00:07:55;100865.13;;;3.87;43.08
65666;BME280;52365;47.464;18.976;2023-02-28T00:08:31;100859.78;;;3.94;42.99
65666;BME280;52365;47.464;18.976;2023-02-28T00:09:07;100865.09;;;3.76;43.29
65666;BME280;52365;47.464;18.976;2023-02-28T00:09:43;100860.13;;;3.57;43.56
65666;BME280;52365;47.464;18.976;2023-02-28T00:10:38;100858.59;;;3.52;43.58
65666;BME280;52365;47.464;18.976;2023-02-28T00:11:14;100867.78;;;3.69;43.37
65666;BME280;52365;47.464;18.976;2023-02-28T00:11:50;100867.00;;;3.58;43.61
65666;BME280;52365;47.464;18.976;2023-02-28T00:12:27;100865.38;;;3.28;44.20
65666;BME280;52365;47.464;18.976;2023-02-28T00:13:05;100870.59;;;2.96;45.22
65666;BME280;52365;47.464;18.976;2023-02-28T00:13:44;100878.69;;;3.18;44.66
65666;BME280;52365;47.464;18.976;2023-02-28T00:14:23;100871.47;;;3.25;44.73
65666;BME280;52365;47.464;18.976;2023-02-28T00:15:00;100873.94;;;2.79;45.06
65666;BME280;52365;47.464;18.976;2023-02-28T00:15:36;100865.91;;;2.68;46.00
65666;BME280;52365;47.464;18.976;2023-02-28T00:16:17;100872.59;;;3.17;45.13
65666;BME280;52365;47.464;18.976;2023-02-28T00:16:54;100874.53;;;3.31;44.59
65666;BME280;52365;47.464;18.976;2023-02-28T00:17:30;100873.03;;;3.30;44.51
65666;BME280;52365;47.464;18.976;2023-02-28T00:18:06;100869.59;;;3.30;44.60
65666;BME280;52365;47.464;18.976;2023-02-28T00:18:42;100879.09;;;3.31;44.47
65666;BME280;52365;47.464;18.976;2023-02-28T00:19:18;100875.84;;;2.78;45.38
65666;BME280;52365;47.464;18.976;2023-02-28T00:19:54;100872.97;;;3.12;45.31
65666;BME280;52365;47.464;18.976;2023-02-28T00:20:30;100884.41;;;3.27;44.89
65666;BME280;52365;47.464;18.976;2023-02-28T00:21:06;100882.16;;;3.33;44.70
65666;BME280;52365;47.464;18.976;2023-02-28T00:21:43;100875.66;;;3.23;44.42
65666;BME280;52365;47.464;18.976;2023-02-28T00:22:20;100877.84;;;3.07;45.24
65666;BME280;52365;47.464;18.976;2023-02-28T00:22:56;100873.25;;;2.96;45.02
65666;BME280;52365;47.464;18.976;2023-02-28T00:23:33;100877.44;;;2.90;45.23
65666;BME280;52365;47.464;18.976;2023-02-28T00:24:09;100873.31;;;3.11;45.24
65666;BME280;52365;47.464;18.976;2023-02-28T00:24:45;100867.72;;;3.44;44.67
65666;BME280;52365;47.464;18.976;2023-02-28T00:25:24;100874.97;;;3.58;44.10
65666;BME280;52365;47.464;18.976;2023-02-28T00:26:01;100875.31;;;3.32;44.34
65666;BME280;52365;47.464;18.976;2023-02-28T00:26:37;100881.91;;;2.75;45.49
65666;BME280;52365;47.464;18.976;2023-02-28T00:27:14;100878.75;;;2.56;45.82
65666;BME280;52365;47.464;18.976;2023-02-28T00:27:51;100875.84;;;2.82;45.51
65666;BME280;52365;47.464;18.976;2023-02-28T00:28:27;100879.38;;;3.04;45.26
65666;BME280;52365;47.464;18.976;2023-02-28T00:29:03;100877.19;;;3.27;44.87
65666;BME280;52365;47.464;18.976;2023-02-28T00:29:39;100884.09;;;3.43;44.56
65666;BME280;52365;47.464;18.976;2023-02-28T00:30:17;100877.87;;;3.03;45.06
65666;BME280;52365;47.464;18.976;2023-02-28T00:30:54;100881.28;;;3.00;45.18
65666;BME280;52365;47.464;18.976;2023-02-28T00:31:30;100885.06;;;2.99;45.20
65666;BME280;52365;47.464;18.976;2023-02-28T00:32:06;100883.66;;;3.26;44.97
65666;BME280;52365;47.464;18.976;2023-02-28T00:32:43;100885.84;;;3.03;45.00
65666;BME280;52365;47.464;18.976;2023-02-28T00:33:19;100888.69;;;3.53;44.22
65666;BME280;52365;47.464;18.976;2023-02-28T00:33:55;100878.06;;;3.74;43.71
65666;BME280;52365;47.464;18.976;2023-02-28T00:34:31;100883.28;;;3.32;44.15
65666;BME280;52365;47.464;18.976;2023-02-28T00:35:13;100886.03;;;3.67;43.98
65666;BME280;52365;47.464;18.976;2023-02-28T00:35:49;100884.72;;;3.11;44.71
65666;BME280;52365;47.464;18.976;2023-02-28T00:36:25;100883.31;;;2.55;45.62
65666;BME280;52365;47.464;18.976;2023-02-28T00:37:01;100885.38;;;2.24;46.50
65666;BME280;52365;47.464;18.976;2023-02-28T00:37:37;100887.16;;;2.61;46.46
65666;BME280;52365;47.464;18.976;2023-02-28T00:38:15;100882.53;;;2.51;46.51
65666;BME280;52365;47.464;18.976;2023-02-28T00:38:51;100894.87;;;2.84;45.85
65666;BME280;52365;47.464;18.976;2023-02-28T00:39:27;100888.75;;;2.73;46.23
65666;BME280;52365;47.464;18.976;2023-02-28T00:40:04;100887.19;;;2.72;45.96
65666;BME280;52365;47.464;18.976;2023-02-28T00:40:42;100884.94;;;2.74;45.99
65666;BME280;52365;47.464;18.976;2023-02-28T00:41:18;100890.47;;;3.17;45.35
65666;BME280;52365;47.464;18.976;2023-02-28T00:41:54;100888.66;;;2.62;45.67
65666;BME280;52365;47.464;18.976;2023-02-28T00:42:30;100888.53;;;2.37;46.46
65666;BME280;52365;47.464;18.976;2023-02-28T00:43:06;100884.75;;;2.42;46.72
65666;BME280;52365;47.464;18.976;2023-02-28T00:43:42;100879.47;;;2.49;46.64
65666;BME280;52365;47.464;18.976;2023-02-28T00:44:18;100884.09;;;2.63;46.06
65666;BME280;52365;47.464;18.976;2023-02-28T00:44:57;100884.53;;;2.13;47.11
65666;BME280;52365;47.464;18.976;2023-02-28T00:45:33;100880.91;;;2.39;47.15
65666;BME280;52365;47.464;18.976;2023-02-28T00:46:09;100897.09;;;2.71;46.30
65666;BME280;52365;47.464;18.976;2023-02-28T00:46:45;100894.53;;;2.93;45.75
65666;BME280;52365;47.464;18.976;2023-02-28T00:47:21;100884.66;;;2.97;45.28
65666;BME280;52365;47.464;18.976;2023-02-28T00:47:57;100889.25;;;2.34;46.34
65666;BME280;52365;47.464;18.976;2023-02-28T00:48:33;100886.44;;;2.68;45.97
65666;BME280;52365;47.464;18.976;2023-02-28T00:49:09;100888.84;;;2.91;45.56
65666;BME280;52365;47.464;18.976;2023-02-28T00:49:45;100895.31;;;2.90;45.66
65666;BME280;52365;47.464;18.976;2023-02-28T00:50:22;100894.63;;;3.11;45.12
65666;BME280;52365;47.464;18.976;2023-02-28T00:50:58;100889.75;;;3.31;44.85
65666;BME280;52365;47.464;18.976;2023-02-28T00:51:34;100892.53;;;2.75;45.52
65666;BME280;52365;47.464;18.976;2023-02-28T00:52:10;100891.78;;;2.75;46.06
65666;BME280;52365;47.464;18.976;2023-02-28T00:52:47;100887.25;;;2.79;45.97
65666;BME280;52365;47.464;18.976;2023-02-28T00:53:23;100887.19;;;2.72;46.08
65666;BME280;52365;47.464;18.976;2023-02-28T00:53:59;100894.87;;;2.84;46.02
65666;BME280;52365;47.464;18.976;2023-02-28T00:54:35;100891.94;;;2.38;46.54
65666;BME280;52365;47.464;18.976;2023-02-28T00:55:11;100901.75;;;2.89;45.84
65666;BME280;52365;47.464;18.976;2023-02-28T00:55:49;100896.25;;;2.57;45.81
65666;BME280;52365;47.464;18.976;2023-02-28T00:56:25;100890.53;;;2.58;46.46
65666;BME280;52365;47.464;18.976;2023-02-28T00:57:01;100893.72;;;2.82;45.92
65666;BME280;52365;47.464;18.976;2023-02-28T00:57:37;100890.84;;;3.12;45.31
65666;BME280;52365;47.464;18.976;2023-02-28T00:58:13;100891.41;;;2.76;45.60
65666;BME280;52365;47.464;18.976;2023-02-28T00:58:49;100894.84;;;2.81;45.86
65666;BME280;52365;47.464;18.976;2023-02-28T00:59:25;100893.38;;;2.87;45.67
65666;BME280;52365;47.464;18.976;2023-02-28T01:00:02;100886.44;;;2.68;46.08
65666;BME280;52365;47.464;18.976;2023-02-28T01:00:39;100888.88;;;2.36;46.02
65666;BME280;52365;47.464;18.976;2023-02-28T01:01:15;100890.78;;;2.39;46.25
65666;BME280;52365;47.464;18.976;2023-02-28T01:01:51;100890.78;;;2.39;46.54
65666;BME280;52365;47.464;18.976;2023-02-28T01:02:27;100895.31;;;2.35;46.48
65666;BME280;52365;47.464;18.976;2023-02-28T01:03:03;100886.44;;;2.71;46.07
65666;BME280;52365;47.464;18.976;2023-02-28T01:03:39;100895.63;;;2.85;45.47
65666;BME280;52365;47.464;18.976;2023-02-28T01:04:16;100894.41;;;2.71;45.42
65666;BME280;52365;47.464;18.976;2023-02-28T01:04:52;100895.34;;;3.00;44.91
65666;BME280;52365;47.464;18.976;2023-02-28T01:05:28;100894.59;;;3.00;44.92
65666;BME280;52365;47.464;18.976;2023-02-28T01:06:04;100893.53;;;3.22;44.78
65666;BME280;52365;47.464;18.976;2023-02-28T01:06:41;100892.13;;;3.61;43.91
65666;BME280;52365;47.464;18.976;2023-02-28T01:07:17;100886.84;;;3.78;43.13
65666;BME280;52365;47.464;18.976;2023-02-28T01:07:53;100888.72;;;3.82;43.05
65666;BME280;52365;47.464;18.976;2023-02-28T01:08:29;100884.09;;;3.46;43.45
65666;BME280;52365;47.464;18.976;2023-02-28T01:09:06;100886.62;;;3.07;44.16
65666;BME280;52365;47.464;18.976;2023-02-28T01:09:42;100890.72;;;2.87;44.95
65666;BME280;52365;47.464;18.976;2023-02-28T01:10:18;100892.66;;;2.90;45.15
65666;BME280;52365;47.464;18.976;2023-02-28T01:10:54;100884.31;;;3.02;44.92
65666;BME280;52365;47.464;18.976;2023-02-28T01:11:31;100885.06;;;3.02;44.89
65666;BME280;52365;47.464;18.976;2023-02-28T01:12:08;100882.06;;;3.04;44.91
65666;BME280;52365;47.464;18.976;2023-02-28T01:12:44;100888.28;;;3.44;44.48
65666;BME280;52365;47.464;18.976;2023-02-28T01:13:20;100887.16;;;3.52;43.94
65666;BME280;52365;47.464;18.976;2023-02-28T01:13:56;100881.72;;;3.20;44.33
65666;BME280;52365;47.464;18.976;2023-02-28T01:14:33;100890.06;;;3.15;44.43
65666;BME280;52365;47.464;18.976;2023-02-28T01:15:11;100888.63;;;3.42;44.29
65666;BME280;52365;47.464;18.976;2023-02-28T01:15:52;100887.50;;;3.40;44.03
65666;BME280;52365;47.464;18.976;2023-02-28T01:16:29;100898.81;;;3.08;44.40
65666;BME280;52365;47.464;18.976;2023-02-28T01:17:05;100897.38;;;3.25;44.33
65666;BME280;52365;47.464;18.976;2023-02-28T01:17:41;100892.41;;;3.23;44.65
65666;BME280;52365;47.464;18.976;2023-02-28T01:18:18;100892.88;;;3.58;43.75
65666;BME280;52365;47.464;18.976;2023-02-28T01:18:54;100897.56;;;2.88;44.45
65666;BME280;52365;47.464;18.976;2023-02-28T01:19:30;100905.25;;;3.03;44.46
65666;BME280;52365;47.464;18.976;2023-02-28T01:20:06;100891.78;;;2.75;44.83
65666;BME280;52365;47.464;18.976;2023-02-28T01:20:43;100896.91;;;3.16;44.65
65666;BME280;52365;47.464;18.976;2023-02-28T01:21:20;100895.06;;;3.23;44.35
65666;BME280;52365;47.464;18.976;2023-02-28T01:21:56;100897.78;;;3.34;44.21
65666;BME280;52365;47.464;18.976;2023-02-28T01:22:34;100890.59;;;3.56;44.02
65666;BME280;52365;47.464;18.976;2023-02-28T01:23:10;100891.66;;;3.26;44.08
65666;BME280;52365;47.464;18.976;2023-02-28T01:23:47;100889.62;;;2.98;44.42
65666;BME280;52365;47.464;18.976;2023-02-28T01:24:23;100896.16;;;3.12;44.53
65666;BME280;52365;47.464;18.976;2023-02-28T01:24:59;100889.53;;;2.81;44.65
65666;BME280;52365;47.464;18.976;2023-02-28T01:25:36;100897.31;;;3.18;44.47
65666;BME280;52365;47.464;18.976;2023-02-28T01:26:18;100892.09;;;3.43;43.78
65666;BME280;52365;47.464;18.976;2023-02-28T01:26:54;100902.03;;;3.60;43.39
65666;BME280;52365;47.464;18.976;2023-02-28T01:27:30;100889.78;;;3.41;43.68
65666;BME280;52365;47.464;18.976;2023-02-28T01:28:06;100896.84;;;2.94;44.20
65666;BME280;52365;47.464;18.976;2023-02-28T01:28:42;100892.53;;;2.68;44.67
65666;BME280;52365;47.464;18.976;2023-02-28T01:29:18;100888.75;;;2.73;45.09
65666;BME280;52365;47.464;18.976;2023-02-28T01:29:54;100892.66;;;2.97;45.47
65666;BME280;52365;47.464;18.976;2023-02-28T01:30:31;100890.47;;;3.17;44.55
65666;BME280;52365;47.464;18.976;2023-02-28T01:31:08;100888.28;;;3.51;43.81
65666;BME280;52365;47.464;18.976;2023-02-28T01:31:44;100892.03;;;3.28;43.80
65666;BME280;52365;47.464;18.976;2023-02-28T01:32:20;100893.56;;;3.30;43.87
65666;BME280;52365;47.464;18.976;2023-02-28T01:32:57;100888.72;;;3.74;43.23
65666;BME280;52365;47.464;18.976;2023-02-28T01:33:34;100889.91;;;4.16;42.19
65666;BME280;52365;47.464;18.976;2023-02-28T01:34:10;100891.41;;;4.21;41.92
65666;BME280;52365;47.464;18.976;2023-02-28T01:34:46;100893.69;;;3.94;42.30
65666;BME280;52365;47.464;18.976;2023-02-28T01:35:22;100890.25;;;3.90;42.62
65666;BME280;52365;47.464;18.976;2023-02-28T01:36:11;100892.97;;;4.18;42.25
65666;BME280;52365;47.464;18.976;2023-02-28T01:36:47;100892.19;;;4.07;41.68
65666;BME280;52365;47.464;18.976;2023-02-28T01:37:23;100884.19;;;4.36;41.49
65666;BME280;52365;47.464;18.976;2023-02-28T01:37:59;100892.16;;;4.50;41.21
65666;BME280;52365;47.464;18.976;2023-02-28T01:38:36;100890.63;;;4.70;40.58
65666;BME280;52365;47.464;18.976;2023-02-28T01:39:12;100896.72;;;4.71;40.52
65666;BME280;52365;47.464;18.976;2023-02-28T01:39:48;100887.50;;;4.83;40.28
65666;BME280;52365;47.464;18.976;2023-02-28T01:40:24;100889.91;;;4.27;41.03
65666;BME280;52365;47.464;18.976;2023-02-28T01:41:01;100887.25;;;4.09;41.79
65666;BME280;52365;47.464;18.976;2023-02-28T01:41:37;100889.50;;;3.93;42.36
65666;BME280;52365;47.464;18.976;2023-02-28T01:42:13;100890.06;;;3.11;43.48
65666;BME280;52365;47.464;18.976;2023-02-28T01:42:49;100892.03;;;3.28;43.68
65666;BME280;52365;47.464;18.976;2023-02-28T01:43:31;100888.94;;;3.12;44.31
65666;BME280;52365;47.464;18.976;2023-02-28T01:45:58;100885.28;;;3.70;43.26
65666;BME280;52365;47.464;18.976;2023-02-28T01:46:35;100883.63;;;3.19;43.99
65666;BME280;52365;47.464;18.976;2023-02-28T01:47:11;100888.94;;;3.19;43.78
65666;BME280;52365;47.464;18.976;2023-02-28T01:47:50;100880.09;;;2.97;44.00
65666;BME280;52365;47.464;18.976;2023-02-28T01:48:33;100880.94;;;3.12;44.17
65666;BME280;52365;47.464;18.976;2023-02-28T01:49:15;100886.25;;;3.09;44.28
65666;BME280;52365;47.464;18.976;2023-02-28T01:49:52;100878.38;;;3.41;43.78
65666;BME280;52365;47.464;18.976;2023-02-28T01:50:32;100883.00;;;3.76;43.02
65666;BME280;52365;47.464;18.976;2023-02-28T01:51:22;100881.09;;;3.76;42.96
65666;BME280;52365;47.464;18.976;2023-02-28T01:52:02;100883.59;;;3.09;43.57
65666;BME280;52365;47.464;18.976;2023-02-28T01:52:39;100888.06;;;2.94;44.72
65666;BME280;52365;47.464;18.976;2023-02-28T01:53:23;100884.91;;;2.70;44.80
65666;BME280;52365;47.464;18.976;2023-02-28T01:54:07;100884.84;;;2.56;45.54
65666;BME280;52365;47.464;18.976;2023-02-28T01:54:52;100883.09;;;2.89;44.87
65666;BME280;52365;47.464;18.976;2023-02-28T01:55:30;100888.13;;;3.01;44.84
65666;BME280;52365;47.464;18.976;2023-02-28T01:56:08;100888.59;;;3.24;44.13
65666;BME280;52365;47.464;18.976;2023-02-28T01:56:56;100887.31;;;2.93;44.57
65666;BME280;52365;47.464;18.976;2023-02-28T01:57:36;100887.16;;;2.61;45.43
65666;BME280;52365;47.464;18.976;2023-02-28T01:58:14;100886.72;;;2.52;45.68
65666;BME280;52365;47.464;18.976;2023-02-28T01:58:51;100881.59;;;2.88;45.11
65666;BME280;52365;47.464;18.976;2023-02-28T01:59:50;100879.75;;;2.99;44.70
65666;BME280;52365;47.464;18.976;2023-02-28T02:00:28;100877.41;;;2.87;44.77
65666;BME280;52365;47.464;18.976;2023-02-28T02:01:05;100879.31;;;2.27;45.85
65666;BME280;52365;47.464;18.976;2023-02-28T02:01:41;100882.16;;;2.52;45.86
65666;BME280;52365;47.464;18.976;2023-02-28T02:02:20;100877.94;;;2.48;45.37
65666;BME280;52365;47.464;18.976;2023-02-28T02:02:59;100879.59;;;2.70;45.28
65666;BME280;52365;47.464;18.976;2023-02-28T02:03:36;100880.91;;;3.05;44.47
65666;BME280;52365;47.464;18.976;2023-02-28T02:04:12;100880.41;;;2.78;44.76
65666;BME280;52365;47.464;18.976;2023-02-28T02:04:56;100884.97;;;2.85;44.89
65666;BME280;52365;47.464;18.976;2023-02-28T02:05:36;100882.13;;;3.25;44.09
65666;BME280;52365;47.464;18.976;2023-02-28T02:06:12;100872.25;;;3.30;43.86
65666;BME280;52365;47.464;18.976;2023-02-28T02:06:49;100874.34;;;2.85;44.43
65666;BME280;52365;47.464;18.976;2023-02-28T02:07:26;100884.66;;;2.90;44.58
65666;BME280;52365;47.464;18.976;2023-02-28T02:08:05;100875.06;;;2.74;45.10
65666;BME280;52365;47.464;18.976;2023-02-28T02:08:42;100880.41;;;2.78;45.02
65666;BME280;52365;47.464;18.976;2023-02-28T02:09:18;100873.94;;;2.79;44.92
65666;BME280;52365;47.464;18.976;2023-02-28T02:10:21;100875.53;;;2.94;44.95
65666;BME280;52365;47.464;18.976;2023-02-28T02:11:01;100886.66;;;3.18;44.03
65666;BME280;52365;47.464;18.976;2023-02-28T02:11:41;100876.88;;;3.47;43.60
65666;BME280;52365;47.464;18.976;2023-02-28T02:15:36;100877.91;;;3.14;43.77
65666;BME280;52365;47.464;18.976;2023-02-28T02:16:06;100879.03;;;3.09;44.46
65666;BME280;52365;47.464;18.976;2023-02-28T02:17:38;100880.03;;;2.80;45.19
65666;BME280;52365;47.464;18.976;2023-02-28T02:18:51;100876.94;;;2.70;45.08
65666;BME280;52365;47.464;18.976;2023-02-28T02:24:46;100876.63;;;2.83;45.15
65666;BME280;52365;47.464;18.976;2023-02-28T02:25:56;100878.25;;;3.05;44.58
65666;BME280;52365;47.464;18.976;2023-02-28T02:27:08;100871.53;;;2.56;45.27
65666;BME280;52365;47.464;18.976;2023-02-28T02:29:45;100885.06;;;2.95;44.98
65666;BME280;52365;47.464;18.976;2023-02-28T02:34:39;100876.12;;;2.63;45.69
65666;BME280;52365;47.464;18.976;2023-02-28T02:36:09;100877.19;;;2.55;45.24
65666;BME280;52365;47.464;18.976;2023-02-28T02:37:00;100882.75;;;2.90;44.99
65666;BME280;52365;47.464;18.976;2023-02-28T02:37:42;100882.81;;;3.05;43.89
65666;BME280;52365;47.464;18.976;2023-02-28T02:39:41;100876.12;;;2.59;44.63
65666;BME280;52365;47.464;18.976;2023-02-28T02:40:23;100880.22;;;2.46;45.11
65666;BME280;52365;47.464;18.976;2023-02-28T02:41:54;100884.13;;;2.15;45.96
65666;BME280;52365;47.464;18.976;2023-02-28T02:43:39;100885.47;;;3.05;44.24
65666;BME280;52365;47.464;18.976;2023-02-28T02:44:24;100874.59;;;2.10;45.76
65666;BME280;52365;47.464;18.976;2023-02-28T02:46:00;100880.59;;;2.48;45.89
65666;BME280;52365;47.464;18.976;2023-02-28T02:46:41;100876.47;;;2.58;45.55
65666;BME280;52365;47.464;18.976;2023-02-28T02:47:20;100879.50;;;2.56;45.42
65666;BME280;52365;47.464;18.976;2023-02-28T02:47:59;100877.63;;;2.60;45.48
65666;BME280;52365;47.464;18.976;2023-02-28T02:48:38;100887.84;;;2.51;45.65
65666;BME280;52365;47.464;18.976;2023-02-28T02:49:21;100882.16;;;2.56;45.32
65666;BME280;52365;47.464;18.976;2023-02-28T02:50:03;100885.13;;;3.10;44.47
65666;BME280;52365;47.464;18.976;2023-02-28T02:50:48;100883.63;;;2.46;45.07
65666;BME280;52365;47.464;18.976;2023-02-28T02:51:26;100879.50;;;2.56;45.49
65666;BME280;52365;47.464;18.976;2023-02-28T02:52:06;100884.94;;;2.15;45.86
65666;BME280;52365;47.464;18.976;2023-02-28T02:52:48;100880.75;;;2.18;46.42
65666;BME280;52365;47.464;18.976;2023-02-28T02:53:30;100883.38;;;2.14;46.44
65666;BME280;52365;47.464;18.976;2023-02-28T02:54:12;100879.44;;;2.42;46.00
65666;BME280;52365;47.464;18.976;2023-02-28T02:54:54;100882.00;;;2.31;46.03
65666;BME280;52365;47.464;18.976;2023-02-28T02:55:35;100882.31;;;2.22;46.43
65666;BME280;52365;47.464;18.976;2023-02-28T02:56:16;100882.44;;;2.40;45.87
65666;BME280;52365;47.464;18.976;2023-02-28T02:56:56;100878.56;;;2.31;46.21
65666;BME280;52365;47.464;18.976;2023-02-28T02:57:42;100874.31;;;2.77;45.72
65666;BME280;52365;47.464;18.976;2023-02-28T02:58:24;100878.53;;;2.86;44.95
65666;BME280;52365;47.464;18.976;2023-02-28T02:59:04;100888.44;;;2.89;45.02
65666;BME280;52365;47.464;18.976;2023-02-28T02:59:44;100875.47;;;2.84;45.08
65666;BME280;52365;47.464;18.976;2023-02-28T03:00:24;100887.28;;;2.83;44.96
65666;BME280;52365;47.464;18.976;2023-02-28T03:01:03;100892.09;;;2.63;45.45
65666;BME280;52365;47.464;18.976;2023-02-28T03:01:41;100890.06;;;2.42;46.26
65666;BME280;52365;47.464;18.976;2023-02-28T03:02:17;100886.47;;;2.75;45.51
65666;BME280;52365;47.464;18.976;2023-02-28T03:02:56;100891.94;;;2.38;45.71
65666;BME280;52365;47.464;18.976;2023-02-28T03:03:33;100884.78;;;2.49;45.86
65666;BME280;52365;47.464;18.976;2023-02-28T03:04:16;100881.13;;;2.16;46.02
65666;BME280;52365;47.464;18.976;2023-02-28T03:05:00;100882.47;;;1.96;46.99
65666;BME280;52365;47.464;18.976;2023-02-28T03:05:49;100881.59;;;2.25;46.50
65666;BME280;52365;47.464;18.976;2023-02-28T03:06:25;100890.59;;;2.14;46.53
65666;BME280;52365;47.464;18.976;2023-02-28T03:07:02;100879.38;;;2.35;46.57
65666;BME280;52365;47.464;18.976;2023-02-28T03:07:38;100881.06;;;2.09;46.47
65666;BME280;52365;47.464;18.976;2023-02-28T03:08:14;100880.94;;;2.43;46.18
65666;BME280;52365;47.464;18.976;2023-02-28T03:08:51;100887.38;;;2.38;46.15
65666;BME280;52365;47.464;18.976;2023-02-28T03:09:27;100892.59;;;2.24;46.29
65666;BME280;52365;47.464;18.976;2023-02-28T03:11:10;100890.78;;;2.39;46.00
65666;BME280;52365;47.464;18.976;2023-02-28T03:11:52;100899.28;;;2.55;45.58
65666;BME280;52365;47.464;18.976;2023-02-28T03:12:41;100892.59;;;2.27;45.90
65666;BME280;52365;47.464;18.976;2023-02-28T03:15:20;100890.69;;;2.24;46.21
65666;BME280;52365;47.464;18.976;2023-02-28T03:18:10;100889.22;;;2.31;46.34
65666;BME280;52365;47.464;18.976;2023-02-28T03:18:54;100891.75;;;2.71;45.46
65666;BME280;52365;47.464;18.976;2023-02-28T03:19:51;100885.53;;;2.46;45.82
65666;BME280;52365;47.464;18.976;2023-02-28T03:22:46;100888.84;;;2.29;46.19
65666;BME280;52365;47.464;18.976;2023-02-28T03:26:02;100898.03;;;3.11;44.47
65666;BME280;52365;47.464;18.976;2023-02-28T03:26:45;100888.84;;;2.91;44.60
65666;BME280;52365;47.464;18.976;2023-02-28T03:28:22;100892.94;;;2.77;44.96
65666;BME280;52365;47.464;18.976;2023-02-28T03:29:15;100889.62;;;2.95;44.66
65666;BME280;52365;47.464;18.976;2023-02-28T03:31:59;100891.84;;;2.82;45.21
65666;BME280;52365;47.464;18.976;2023-02-28T03:33:01;100892.53;;;2.75;45.39
65666;BME280;52365;47.464;18.976;2023-02-28T03:33:50;100888.19;;;2.46;45.57
65666;BME280;52365;47.464;18.976;2023-02-28T03:34:37;100892.00;;;2.48;45.77
65666;BME280;52365;47.464;18.976;2023-02-28T03:35:24;100889.22;;;2.31;45.82
65666;BME280;52365;47.464;18.976;2023-02-28T03:36:10;100892.06;;;2.08;46.27
65666;BME280;52365;47.464;18.976;2023-02-28T03:36:52;100883.28;;;2.00;46.59
65666;BME280;52365;47.464;18.976;2023-02-28T03:37:30;100889.75;;;2.03;46.75
65666;BME280;52365;47.464;18.976;2023-02-28T03:38:13;100890.38;;;2.37;46.25
65666;BME280;52365;47.464;18.976;2023-02-28T03:39:04;100891.69;;;2.09;46.37
65666;BME280;52365;47.464;18.976;2023-02-28T03:39:47;100883.66;;;1.98;46.64
65666;BME280;52365;47.464;18.976;2023-02-28T03:40:28;100880.00;;;2.17;46.12
65666;BME280;52365;47.464;18.976;2023-02-28T03:41:23;100885.03;;;2.30;46.08
65666;BME280;52365;47.464;18.976;2023-02-28T03:42:06;100876.75;;;2.42;45.66
65666;BME280;52365;47.464;18.976;2023-02-28T03:42:48;100884.37;;;2.43;45.77
65666;BME280;52365;47.464;18.976;2023-02-28T03:43:29;100891.72;;;2.64;45.41
65666;BME280;52365;47.464;18.976;2023-02-28T03:44:14;100890.69;;;2.24;45.74
65666;BME280;52365;47.464;18.976;2023-02-28T03:44:56;100890.87;;;2.53;45.62
65666;BME280;52365;47.464;18.976;2023-02-28T03:45:36;100888.22;;;2.53;45.65
65666;BME280;52365;47.464;18.976;2023-02-28T03:46:17;100886.16;;;2.29;45.85
65666;BME280;52365;47.464;18.976;2023-02-28T03:47:06;100885.88;;;2.44;45.76
65666;BME280;52365;47.464;18.976;2023-02-28T03:48:01;100888.31;;;2.12;46.11
65666;BME280;52365;47.464;18.976;2023-02-28T03:48:44;100881.37;;;2.00;46.35
65666;BME280;52365;47.464;18.976;2023-02-28T03:49:32;100894.84;;;2.22;46.09
65666;BME280;52365;47.464;18.976;2023-02-28T03:50:14;100892.25;;;2.29;45.90
65666;BME280;52365;47.464;18.976;2023-02-28T03:50:55;100898.47;;;2.47;45.66
65666;BME280;52365;47.464;18.976;2023-02-28T03:51:35;100894.44;;;2.16;45.57
65666;BME280;52365;47.464;18.976;2023-02-28T03:52:18;100896.69;;;2.14;45.88
65666;BME280;52365;47.464;18.976;2023-02-28T03:53:03;100898.78;;;2.39;45.94
65666;BME280;52365;47.464;18.976;2023-02-28T03:53:46;100895.19;;;2.17;46.02
65666;BME280;52365;47.464;18.976;2023-02-28T03:54:33;100893.31;;;2.21;46.21
65666;BME280;52365;47.464;18.976;2023-02-28T03:55:12;100894.78;;;2.11;46.17
65666;BME280;52365;47.464;18.976;2023-02-28T03:55:56;100894.22;;;1.91;46.43
65666;BME280;52365;47.464;18.976;2023-02-28T03:56:38;100893.59;;;2.09;46.45
65666;BME280;52365;47.464;18.976;2023-02-28T03:57:24;100894.87;;;2.25;46.06
65666;BME280;52365;47.464;18.976;2023-02-28T03:59:45;100889.72;;;1.99;46.52
65666;BME280;52365;47.464;18.976;2023-02-28T04:00:31;100889.31;;;1.97;46.62
65666;BME280;52365;47.464;18.976;2023-02-28T04:01:12;100888.84;;;1.88;46.52
65666;BME280;52365;47.464;18.976;2023-02-28T04:01:49;100881.94;;;1.76;46.72
65666;BME280;52365;47.464;18.976;2023-02-28T04:02:25;100886.88;;;1.77;47.31
65666;BME280;52365;47.464;18.976;2023-02-28T04:03:03;100886.72;;;2.04;46.89